Time;durP1;ratioP1;P1;durP2;ratioP2;P2;SDS_P1;SDS_P2;PMS_P1;PMS_P2;Temp;Humidity;BMP_temperature;BMP_pressure;BME280_temperature;BME280_humidity;BME280_pressure;Samples;Min_cycle;Max_cycle;Signal;HPM_P1;HPM_P2
2023/04/12 00:01:41;;;;;;;8.77;2.40;;;7.90;99.90;;;;;;7371959;19;20094;-69
2023/04/12 00:04:09;;;;;;;8.80;2.50;;;7.90;99.90;;;;;;7373620;19;20762;-70
2023/04/12 00:06:36;;;;;;;8.90;2.83;;;8.00;99.90;;;;;;7373934;19;20082;-70
2023/04/12 00:09:03;;;;;;;12.35;3.53;;;7.90;99.90;;;;;;7375174;19;20022;-70
2023/04/12 00:11:30;;;;;;;6.10;3.00;;;8.00;99.90;;;;;;7373714;19;20018;-69
2023/04/12 00:13:56;;;;;;;7.90;2.50;;;8.00;99.90;;;;;;7376363;19;20078;-69
2023/04/12 00:16:23;;;;;;;11.77;3.30;;;8.00;99.90;;;;;;7374369;19;20020;-69
2023/04/12 00:18:52;;;;;;;8.70;2.92;;;8.00;99.90;;;;;;7374192;19;20019;-69
2023/04/12 00:21:18;;;;;;;9.40;3.08;;;8.00;99.90;;;;;;7370832;19;20662;-69
2023/04/12 00:23:48;;;;;;;11.63;2.70;;;8.00;99.90;;;;;;7373923;19;20014;-69
2023/04/12 00:26:15;;;;;;;7.13;3.03;;;8.00;99.90;;;;;;7372289;19;20018;-70
2023/04/12 00:28:43;;;;;;;6.07;2.63;;;8.00;99.90;;;;;;7372701;19;20068;-69
2023/04/12 00:31:14;;;;;;;;;;;8.00;99.90;;;;;;7366684;19;20030;-60
2023/04/12 00:33:41;;;;;;;10.95;2.70;;;8.00;99.90;;;;;;7370059;19;19937;-61
2023/04/12 00:36:07;;;;;;;9.35;3.17;;;8.10;99.90;;;;;;7364790;19;20018;-61
2023/04/12 00:38:34;;;;;;;8.15;3.00;;;8.00;99.90;;;;;;7362683;19;20035;-61
2023/04/12 00:41:02;;;;;;;11.15;3.13;;;8.00;99.90;;;;;;7366697;19;20438;-61
2023/04/12 00:43:28;;;;;;;10.30;2.88;;;8.10;99.90;;;;;;7369322;19;20026;-62
2023/04/12 00:45:59;;;;;;;6.78;3.10;;;8.10;99.90;;;;;;7372743;19;20014;-70
2023/04/12 00:48:27;;;;;;;11.32;3.25;;;8.10;99.90;;;;;;7375277;19;20022;-70
2023/04/12 00:50:56;;;;;;;6.60;2.70;;;8.20;99.90;;;;;;7373504;19;20018;-69
2023/04/12 00:53:23;;;;;;;10.25;2.70;;;8.20;99.90;;;;;;7372138;19;20649;-69
2023/04/12 00:55:55;;;;;;;9.35;3.42;;;8.30;99.90;;;;;;7371111;19;20905;-69
2023/04/12 00:58:23;;;;;;;9.93;3.05;;;8.30;99.90;;;;;;7372376;19;20517;-69
2023/04/12 01:00:51;;;;;;;9.90;3.25;;;8.40;99.90;;;;;;7370247;19;20018;-69
2023/04/12 01:03:21;;;;;;;7.88;2.90;;;8.40;99.90;;;;;;7354902;19;20660;-69
2023/04/12 01:06:00;;;;;;;8.65;2.92;;;8.40;99.90;;;;;;7365277;19;20035;-68
2023/04/12 01:08:51;;;;;;;7.43;2.70;;;8.50;99.90;;;;;;7368845;19;20018;-61
2023/04/12 01:11:30;;;;;;;9.32;2.88;;;8.60;99.90;;;;;;7374378;19;20078;-70
2023/04/12 01:14:27;;;;;;;9.73;3.17;;;8.70;99.90;;;;;;7374147;19;20074;-70
2023/04/12 01:16:58;;;;;;;10.57;2.80;;;8.70;99.90;;;;;;7371064;19;20040;-70
2023/04/12 01:19:35;;;;;;;8.73;2.90;;;8.80;99.90;;;;;;7371470;19;20022;-70
2023/04/12 01:22:23;;;;;;;11.35;3.58;;;8.90;99.90;;;;;;7371245;19;20086;-70
2023/04/12 01:25:25;;;;;;;13.05;3.13;;;8.90;99.90;;;;;;7370072;19;20827;-70
2023/04/12 01:28:01;;;;;;;8.02;2.80;;;8.90;99.90;;;;;;7367091;19;20028;-69
2023/04/12 01:30:28;;;;;;;8.85;2.97;;;8.90;99.90;;;;;;7365091;19;20010;-61
2023/04/12 01:32:58;;;;;;;10.50;3.63;;;8.90;99.90;;;;;;7370868;19;20026;-70
2023/04/12 01:35:30;;;;;;;7.75;2.92;;;8.90;99.90;;;;;;7372734;19;20111;-70
2023/04/12 01:37:58;;;;;;;9.30;2.85;;;8.90;99.90;;;;;;7374679;19;20497;-70
2023/04/12 01:40:29;;;;;;;;;;;8.80;99.90;;;;;;7375152;19;20083;-70
2023/04/12 01:43:10;;;;;;;10.52;2.97;;;8.80;99.90;;;;;;7371340;19;19923;-69
2023/04/12 01:45:38;;;;;;;11.25;3.33;;;8.80;99.90;;;;;;7366181;19;20499;-70
2023/04/12 01:48:10;;;;;;;11.18;3.22;;;8.80;99.90;;;;;;7373221;19;20026;-70
2023/04/12 01:50:42;;;;;;;9.38;3.67;;;8.80;99.90;;;;;;7374571;19;20018;-70
2023/04/12 01:53:22;;;;;;;7.97;2.90;;;8.80;99.90;;;;;;7372484;19;20485;-70
2023/04/12 01:55:57;;;;;;;7.47;2.80;;;8.70;99.90;;;;;;7370253;19;20077;-70
2023/04/12 01:58:25;;;;;;;8.93;2.50;;;8.70;99.90;;;;;;7373191;19;20029;-68
2023/04/12 02:00:53;;;;;;;7.13;2.67;;;8.70;99.90;;;;;;7370981;19;20026;-70
2023/04/12 02:03:22;;;;;;;10.95;2.78;;;8.70;99.90;;;;;;7370044;19;20671;-71
2023/04/12 02:05:50;;;;;;;10.13;2.38;;;8.60;99.90;;;;;;7367012;19;20011;-62
2023/04/12 02:08:20;;;;;;;7.25;2.78;;;8.60;99.90;;;;;;7365855;19;21730;-61
2023/04/12 02:10:47;;;;;;;9.00;3.55;;;8.60;99.90;;;;;;7367736;19;20019;-61
2023/04/12 02:13:17;;;;;;;10.13;2.78;;;8.70;99.90;;;;;;7366467;19;20018;-70
2023/04/12 02:15:44;;;;;;;8.85;2.38;;;8.60;99.90;;;;;;7374389;19;20097;-71
2023/04/12 02:18:12;;;;;;;6.07;2.45;;;8.60;99.90;;;;;;7367474;19;20023;-71
2023/04/12 02:20:40;;;;;;;10.15;3.17;;;8.50;99.90;;;;;;7366649;19;20038;-70
2023/04/12 02:23:07;;;;;;;8.13;2.60;;;8.50;99.90;;;;;;7368421;19;20018;-71
2023/04/12 02:25:34;;;;;;;9.80;2.50;;;8.50;99.90;;;;;;7363116;19;20772;-71
2023/04/12 02:28:05;;;;;;;5.60;2.25;;;8.50;99.90;;;;;;7363746;19;20019;-72
2023/04/12 02:30:32;;;;;;;8.93;2.95;;;8.50;99.90;;;;;;7365773;19;20018;-70
2023/04/12 02:33:01;;;;;;;9.32;2.35;;;8.50;99.90;;;;;;7367979;19;20422;-70
2023/04/12 02:35:40;;;;;;;12.32;2.92;;;8.50;99.90;;;;;;7369321;19;20098;-70
2023/04/12 02:38:15;;;;;;;9.73;2.33;;;8.50;99.90;;;;;;7370808;19;20029;-70
2023/04/12 02:40:41;;;;;;;9.77;2.65;;;8.40;99.90;;;;;;7372177;19;20014;-71
2023/04/12 02:43:11;;;;;;;6.15;2.05;;;8.40;99.90;;;;;;7373695;19;20022;-70
2023/04/12 02:45:41;;;;;;;8.10;2.55;;;8.50;99.90;;;;;;7377192;19;20482;-71
2023/04/12 02:48:09;;;;;;;8.82;2.67;;;8.50;99.90;;;;;;7379586;19;20021;-61
2023/04/12 02:50:36;;;;;;;6.90;2.10;;;8.50;99.90;;;;;;7372447;19;20653;-62
2023/04/12 02:53:23;;;;;;;8.73;2.60;;;8.40;99.90;;;;;;7373652;19;20357;-62
2023/04/12 02:56:17;;;;;;;7.45;2.47;;;8.40;99.90;;;;;;7375290;19;20019;-62
2023/04/12 02:58:45;;;;;;;9.25;2.60;;;8.40;99.90;;;;;;7372845;19;20411;-61
2023/04/12 03:01:17;;;;;;;;;;;8.30;99.90;;;;;;7370805;19;20025;-70
2023/04/12 03:04:12;;;;;;;7.28;1.90;;;8.40;99.90;;;;;;7371520;19;19922;-70
2023/04/12 03:06:53;;;;;;;7.25;2.00;;;8.40;99.90;;;;;;7369746;19;20086;-70
2023/04/12 03:09:26;;;;;;;6.82;2.17;;;8.40;99.90;;;;;;7379369;19;20803;-71
2023/04/12 03:11:55;;;;;;;7.85;2.17;;;8.50;99.90;;;;;;7377168;19;20018;-70
2023/04/12 03:14:22;;;;;;;8.38;2.53;;;8.50;99.90;;;;;;7374010;19;20019;-61
2023/04/12 03:16:50;;;;;;;6.05;2.45;;;8.40;99.90;;;;;;7369395;19;20029;-61
2023/04/12 03:19:19;;;;;;;6.93;2.08;;;8.40;99.90;;;;;;7373856;19;20028;-61
2023/04/12 03:21:52;;;;;;;11.25;2.97;;;8.40;99.90;;;;;;7377497;19;20065;-70
2023/04/12 03:24:18;;;;;;;9.73;2.22;;;8.40;99.90;;;;;;7373287;19;20018;-69
2023/04/12 03:30:18;;;;;;;7.28;2.05;;;8.50;99.90;;;;;;7364647;19;20042;-70
2023/04/12 03:32:46;;;;;;;6.97;2.40;;;8.50;99.90;;;;;;7383756;19;20026;-70
2023/04/12 03:35:13;;;;;;;6.75;2.30;;;8.50;99.90;;;;;;7387818;19;20022;-70
2023/04/12 03:37:42;;;;;;;7.18;2.25;;;8.60;99.90;;;;;;7386008;19;20014;-69
2023/04/12 03:40:10;;;;;;;5.88;2.20;;;8.50;99.90;;;;;;7385398;19;20047;-70
2023/04/12 03:42:38;;;;;;;7.35;2.30;;;8.60;99.90;;;;;;7384958;19;20054;-71
2023/04/12 03:45:11;;;;;;;7.00;1.83;;;8.60;99.90;;;;;;7386743;19;20023;-70
2023/04/12 03:47:41;;;;;;;5.80;2.42;;;8.60;99.90;;;;;;7386574;19;20027;-70
2023/04/12 03:50:09;;;;;;;6.22;2.03;;;8.60;99.90;;;;;;7385607;19;20018;-69
2023/04/12 03:52:36;;;;;;;7.78;2.75;;;8.60;99.90;;;;;;7387084;19;20022;-70
2023/04/12 03:55:06;;;;;;;9.88;2.50;;;8.60;99.90;;;;;;7382338;19;20014;-69
2023/04/12 03:57:34;;;;;;;6.03;2.63;;;8.60;99.90;;;;;;7382487;19;20015;-61
2023/04/12 04:00:02;;;;;;;5.88;2.17;;;8.70;99.90;;;;;;7381886;19;20500;-70
2023/04/12 04:02:46;;;;;;;6.78;2.72;;;8.60;99.90;;;;;;7379940;19;20015;-60
2023/04/12 04:05:14;;;;;;;6.45;3.33;;;8.60;99.90;;;;;;7375237;19;20063;-60
2023/04/12 04:07:43;;;;;;;11.25;3.03;;;8.60;99.90;;;;;;7380168;19;20022;-61
2023/04/12 04:10:10;;;;;;;8.10;3.13;;;8.50;99.90;;;;;;7377060;19;20029;-61
2023/04/12 04:12:40;;;;;;;10.85;3.38;;;8.40;99.90;;;;;;7378961;19;20042;-70
2023/04/12 04:15:10;;;;;;;6.65;2.90;;;8.40;99.90;;;;;;7381691;19;20022;-70
2023/04/12 04:17:36;;;;;;;4.63;2.67;;;8.30;99.90;;;;;;7381478;19;20289;-69
2023/04/12 04:20:05;;;;;;;8.93;3.03;;;8.20;99.90;;;;;;7380340;19;20018;-69
2023/04/12 04:22:35;;;;;;;5.97;3.10;;;8.20;99.90;;;;;;7379186;19;20022;-69
2023/04/12 04:25:04;;;;;;;7.15;3.20;;;8.10;99.90;;;;;;7372940;19;20035;-68
2023/04/12 04:27:37;;;;;;;7.07;3.20;;;8.10;99.90;;;;;;7373856;19;20659;-69
2023/04/12 04:30:05;;;;;;;7.60;3.20;;;8.10;99.90;;;;;;7373632;19;20363;-69
2023/04/12 04:32:32;;;;;;;9.07;3.20;;;8.10;99.90;;;;;;7375050;19;20086;-69
2023/04/12 04:35:20;;;;;;;6.60;3.20;;;8.10;99.90;;;;;;7367070;19;20083;-62
2023/04/12 04:38:39;;;;;;;9.98;3.05;;;8.10;99.90;;;;;;7371766;19;20014;-70
2023/04/12 04:41:40;;;;;;;7.80;3.15;;;8.00;99.90;;;;;;7374954;19;20125;-69
2023/04/12 04:44:17;;;;;;;6.43;3.08;;;8.00;99.90;;;;;;7374459;19;20014;-69
2023/04/12 04:46:52;;;;;;;7.78;3.83;;;8.10;99.90;;;;;;7375293;19;20022;-69
2023/04/12 04:49:19;;;;;;;9.82;3.35;;;8.00;99.90;;;;;;7370207;19;20018;-70
2023/04/12 04:51:45;;;;;;;8.40;3.08;;;8.00;99.90;;;;;;7372701;19;20374;-69
2023/04/12 04:54:13;;;;;;;9.00;4.15;;;8.00;99.90;;;;;;7372693;19;20033;-68
2023/04/12 04:56:43;;;;;;;7.07;3.55;;;7.90;99.90;;;;;;7373421;19;20672;-67
2023/04/12 04:59:13;;;;;;;11.63;3.70;;;7.90;99.90;;;;;;7369848;19;20022;-68
2023/04/12 05:01:40;;;;;;;7.03;3.95;;;7.80;99.90;;;;;;7373432;19;20029;-66
2023/04/12 05:04:06;;;;;;;10.52;3.83;;;7.80;99.90;;;;;;7373185;19;20881;-66
2023/04/12 05:06:35;;;;;;;11.73;3.92;;;7.70;99.90;;;;;;7370448;19;20082;-67
2023/04/12 05:09:04;;;;;;;8.35;4.28;;;7.70;99.90;;;;;;7367200;19;20047;-66
2023/04/12 05:11:33;;;;;;;10.05;4.47;;;7.70;99.90;;;;;;7370991;19;20021;-66
2023/04/12 05:14:01;;;;;;;8.98;4.13;;;7.60;99.90;;;;;;7371009;19;20902;-66
2023/04/12 05:16:27;;;;;;;10.75;4.43;;;7.60;99.90;;;;;;7373423;19;20019;-67
2023/04/12 05:18:57;;;;;;;9.10;3.45;;;7.60;99.90;;;;;;7376428;19;20018;-67
2023/04/12 05:21:23;;;;;;;8.80;3.42;;;7.60;99.90;;;;;;7369005;19;20023;-63
2023/04/12 05:23:50;;;;;;;9.02;3.78;;;7.60;99.90;;;;;;7370618;19;20018;-69
2023/04/12 05:26:18;;;;;;;7.90;3.75;;;7.60;99.90;;;;;;7369078;19;20022;-70
2023/04/12 05:28:48;;;;;;;10.93;3.85;;;7.50;99.90;;;;;;7368200;19;20379;-71
2023/04/12 05:31:16;;;;;;;9.35;4.32;;;7.50;99.90;;;;;;7369721;19;20018;-71
2023/04/12 05:33:43;;;;;;;7.07;3.90;;;7.50;99.90;;;;;;7365310;19;20095;-64
2023/04/12 05:36:11;;;;;;;9.63;4.20;;;7.50;99.90;;;;;;7373644;19;20014;-63
2023/04/12 05:38:37;;;;;;;9.00;4.15;;;7.50;99.90;;;;;;7367409;19;20094;-63
2023/04/12 05:41:10;;;;;;;8.73;4.00;;;7.50;99.90;;;;;;7368130;19;20018;-63
2023/04/12 05:43:36;;;;;;;8.75;3.95;;;7.50;99.90;;;;;;7370593;19;20026;-64
2023/04/12 05:46:08;;;;;;;9.50;4.15;;;7.50;99.90;;;;;;7374240;19;20018;-73
2023/04/12 05:48:35;;;;;;;9.65;4.25;;;7.50;99.90;;;;;;7367157;19;20015;-73
2023/04/12 05:51:04;;;;;;;10.15;3.95;;;7.50;99.90;;;;;;7373626;19;20010;-73
2023/04/12 05:53:31;;;;;;;7.10;4.28;;;7.50;99.90;;;;;;7374442;19;20022;-73
2023/04/12 05:56:01;;;;;;;6.38;2.83;;;7.60;99.90;;;;;;7376188;19;20058;-73
2023/04/12 05:58:28;;;;;;;10.70;4.10;;;7.50;99.90;;;;;;7370476;19;20047;-63
2023/04/12 06:00:55;;;;;;;14.80;4.80;;;7.50;99.90;;;;;;7368503;19;20021;-73
2023/04/12 06:03:24;;;;;;;11.18;5.03;;;7.60;99.90;;;;;;7365723;19;20018;-74
2023/04/12 06:05:51;;;;;;;4.65;3.22;;;7.60;99.90;;;;;;7376629;19;20082;-74
2023/04/12 06:08:20;;;;;;;7.97;4.03;;;7.50;99.90;;;;;;7368687;19;20378;-74
2023/04/12 06:10:47;;;;;;;10.52;4.60;;;7.50;99.90;;;;;;7368782;19;20035;-74
2023/04/12 06:13:14;;;;;;;10.35;4.22;;;7.50;99.90;;;;;;7370620;19;20015;-74
2023/04/12 06:15:42;;;;;;;12.65;4.20;;;7.50;99.90;;;;;;7373831;19;20091;-74
2023/04/12 06:18:11;;;;;;;7.18;3.22;;;7.50;99.90;;;;;;7366603;19;20027;-74
2023/04/12 06:20:39;;;;;;;8.57;3.17;;;7.50;99.90;;;;;;7378680;19;20565;-74
2023/04/12 06:23:13;;;;;;;7.57;4.13;;;7.50;99.90;;;;;;7372790;19;21125;-70
2023/04/12 06:25:40;;;;;;;11.00;4.57;;;7.50;99.90;;;;;;7378256;19;20026;-74
2023/04/12 06:28:06;;;;;;;10.00;4.75;;;7.50;99.90;;;;;;7377243;19;20010;-74
2023/04/12 06:30:40;;;;;;;12.45;4.65;;;7.50;99.90;;;;;;7372265;19;20114;-75
2023/04/12 06:33:07;;;;;;;10.02;4.53;;;7.50;99.90;;;;;;7375931;19;20592;-63
2023/04/12 06:35:33;;;;;;;7.30;4.20;;;7.50;99.90;;;;;;7375129;19;20022;-63
2023/04/12 06:38:02;;;;;;;8.52;4.57;;;7.40;99.90;;;;;;7373671;19;20366;-74
2023/04/12 06:40:29;;;;;;;8.82;4.20;;;7.50;99.90;;;;;;7377067;19;20031;-74
2023/04/12 06:42:55;;;;;;;10.90;4.47;;;7.40;99.90;;;;;;7379200;19;20045;-74
2023/04/12 06:45:22;;;;;;;8.07;4.20;;;7.50;99.90;;;;;;7382464;19;20026;-75
2023/04/12 06:47:48;;;;;;;10.10;4.25;;;7.50;99.90;;;;;;7376286;19;20022;-75
2023/04/12 06:50:15;;;;;;;9.98;4.55;;;7.50;99.90;;;;;;7382812;19;20446;-74
2023/04/12 06:52:41;;;;;;;12.45;4.95;;;7.50;99.90;;;;;;7373596;19;20018;-64
2023/04/12 06:55:09;;;;;;;9.73;4.43;;;7.50;99.90;;;;;;7375854;19;20014;-75
2023/04/12 06:57:52;;;;;;;8.73;5.05;;;7.50;99.90;;;;;;7384134;19;20814;-75
2023/04/12 07:00:19;;;;;;;6.90;4.30;;;7.50;99.90;;;;;;7380317;19;20090;-74
2023/04/12 07:02:46;;;;;;;7.03;4.25;;;7.50;99.90;;;;;;7380467;19;20010;-65
2023/04/12 07:05:13;;;;;;;13.70;5.93;;;7.50;99.90;;;;;;7374973;19;20401;-65
2023/04/12 07:07:44;;;;;;;10.85;5.00;;;7.50;99.90;;;;;;7379858;19;20014;-65
2023/04/12 07:10:10;;;;;;;8.15;4.75;;;7.60;99.90;;;;;;7376430;19;20010;-75
2023/04/12 07:12:37;;;;;;;11.20;4.78;;;7.50;99.90;;;;;;7377766;19;20086;-74
2023/04/12 07:15:04;;;;;;;9.25;5.85;;;7.60;99.90;;;;;;7384258;19;20018;-76
2023/04/12 07:17:31;;;;;;;8.15;5.18;;;7.60;99.90;;;;;;7383671;19;20023;-73
2023/04/12 07:20:05;;;;;;;8.30;5.72;;;7.50;99.90;;;;;;7381605;19;20366;-74
2023/04/12 07:22:36;;;;;;;9.52;5.07;;;7.60;99.90;;;;;;7380065;19;20537;-73
2023/04/12 07:25:08;;;;;;;8.73;4.55;;;7.60;99.90;;;;;;7378192;19;20021;-74
2023/04/12 07:27:35;;;;;;;8.07;5.60;;;7.60;99.90;;;;;;7375255;19;20014;-73
2023/04/12 07:30:03;;;;;;;9.68;4.78;;;7.60;99.90;;;;;;7371211;19;20019;-64
2023/04/12 07:32:30;;;;;;;8.50;5.05;;;7.60;99.90;;;;;;7375700;19;20030;-65
2023/04/12 07:34:56;;;;;;;9.77;5.95;;;7.60;99.90;;;;;;7372219;19;20023;-64
2023/04/12 07:37:22;;;;;;;10.88;5.82;;;7.60;99.90;;;;;;7376508;19;20027;-64
2023/04/12 07:39:51;;;;;;;9.68;6.07;;;7.60;99.90;;;;;;7367074;19;20090;-64
2023/04/12 07:42:18;;;;;;;8.23;6.05;;;7.60;99.90;;;;;;7373141;19;20016;-63
2023/04/12 07:44:44;;;;;;;7.05;5.57;;;7.60;99.90;;;;;;7376564;19;20022;-63
2023/04/12 07:47:11;;;;;;;8.85;5.78;;;7.60;99.90;;;;;;7374955;19;20014;-63
2023/04/12 07:49:47;;;;;;;11.95;6.72;;;7.60;99.90;;;;;;7370293;19;20042;-62
2023/04/12 07:52:20;;;;;;;10.00;6.70;;;7.60;99.90;;;;;;7369576;19;20827;-71
2023/04/12 07:54:47;;;;;;;12.45;7.28;;;7.60;99.90;;;;;;7374808;19;20018;-71
2023/04/12 07:57:13;;;;;;;7.57;6.63;;;7.60;99.90;;;;;;7376580;19;20528;-71
2023/04/12 07:59:40;;;;;;;11.77;7.03;;;7.60;99.90;;;;;;7369400;19;20058;-70
2023/04/12 08:02:06;;;;;;;12.50;6.85;;;7.60;99.90;;;;;;7365387;19;21093;-63
2023/04/12 08:04:33;;;;;;;12.27;7.30;;;7.60;99.90;;;;;;7369760;19;20035;-62
2023/04/12 08:07:00;;;;;;;12.80;7.32;;;7.70;99.90;;;;;;7378977;19;20021;-63
2023/04/12 08:09:27;;;;;;;12.32;7.78;;;7.70;99.90;;;;;;7374856;19;20034;-63
2023/04/12 08:11:57;;;;;;;11.00;7.10;;;7.70;99.90;;;;;;7377859;19;20010;-63
2023/04/12 08:14:25;;;;;;;10.07;7.63;;;7.70;99.90;;;;;;7375111;19;20097;-63
2023/04/12 08:16:51;;;;;;;8.70;6.95;;;7.80;99.90;;;;;;7376724;19;20059;-63
2023/04/12 08:19:19;;;;;;;10.35;8.48;;;7.80;99.90;;;;;;7374244;19;20736;-64
2023/04/12 08:21:45;;;;;;;12.27;8.38;;;7.80;99.90;;;;;;7377378;19;20052;-63
2023/04/12 08:24:12;;;;;;;11.02;8.27;;;7.90;99.90;;;;;;7374252;19;20769;-68
2023/04/12 08:26:38;;;;;;;11.98;8.98;;;7.90;99.90;;;;;;7375997;19;20022;-68
2023/04/12 08:29:10;;;;;;;13.45;9.15;;;7.90;99.90;;;;;;7372410;19;20020;-68
2023/04/12 08:31:37;;;;;;;11.98;8.52;;;7.90;99.90;;;;;;7369825;19;20102;-69
2023/04/12 08:34:03;;;;;;;9.82;8.82;;;7.90;99.90;;;;;;7372562;19;20021;-67
2023/04/12 08:36:30;;;;;;;10.68;9.30;;;7.90;99.90;;;;;;7373498;19;20357;-67
2023/04/12 08:39:01;;;;;;;9.32;8.27;;;8.00;99.90;;;;;;7371967;19;20674;-62
2023/04/12 08:41:28;;;;;;;12.18;9.00;;;8.00;99.90;;;;;;7375642;19;20046;-62
2023/04/12 08:43:55;;;;;;;10.82;9.30;;;8.00;99.90;;;;;;7375225;19;20940;-68
2023/04/12 08:46:21;;;;;;;11.02;9.85;;;8.00;99.90;;;;;;7374708;19;20026;-68
2023/04/12 08:48:52;;;;;;;11.63;9.85;;;8.10;99.90;;;;;;7376670;19;20015;-66
2023/04/12 08:51:20;;;;;;;12.18;10.05;;;8.10;99.90;;;;;;7378947;19;20026;-62
2023/04/12 08:53:50;;;;;;;14.13;12.07;;;8.10;99.90;;;;;;7374580;19;20027;-66
2023/04/12 08:56:17;;;;;;;14.10;12.68;;;8.20;99.90;;;;;;7377292;19;20018;-67
2023/04/12 08:58:50;;;;;;;15.30;13.80;;;8.20;99.90;;;;;;7375767;19;20025;-63
2023/04/12 09:01:20;;;;;;;14.73;13.30;;;8.30;99.90;;;;;;7376075;19;20044;-63
2023/04/12 09:03:47;;;;;;;15.20;13.68;;;8.30;99.90;;;;;;7371869;19;20024;-67
2023/04/12 09:06:14;;;;;;;14.65;13.15;;;8.30;99.90;;;;;;7376694;19;20023;-63
2023/04/12 09:08:56;;;;;;;16.65;14.18;;;8.20;99.90;;;;;;7378125;19;20023;-64
2023/04/12 09:11:27;;;;;;;16.33;14.63;;;8.20;99.90;;;;;;7375615;19;20045;-63
2023/04/12 09:13:56;;;;;;;17.50;14.60;;;8.20;99.90;;;;;;7371630;19;20018;-67
2023/04/12 09:16:41;;;;;;;16.90;15.15;;;8.20;99.90;;;;;;7375311;19;20022;-66
2023/04/12 09:19:08;;;;;;;18.85;16.42;;;8.20;99.90;;;;;;7364287;19;20018;-63
2023/04/12 09:21:36;;;;;;;19.33;16.73;;;8.30;99.90;;;;;;7371326;19;20089;-63
2023/04/12 09:24:08;;;;;;;18.90;16.92;;;8.40;99.90;;;;;;7375976;19;20090;-63
2023/04/12 09:26:35;;;;;;;;;;;8.40;99.90;;;;;;7374389;19;20453;-67
2023/04/12 09:29:02;;;;;;;18.13;15.75;;;8.60;99.90;;;;;;7375850;19;19922;-63
2023/04/12 09:31:29;;;;;;;16.73;15.10;;;8.70;99.90;;;;;;7368025;19;20041;-63
2023/04/12 09:34:10;;;;;;;17.67;16.00;;;8.90;99.90;;;;;;7367624;19;20014;-66
2023/04/12 09:36:39;;;;;;;17.05;15.50;;;9.00;99.90;;;;;;7370584;19;20015;-65
2023/04/12 09:39:07;;;;;;;18.33;16.52;;;9.10;99.90;;;;;;7368376;19;20026;-66
2023/04/12 09:41:33;;;;;;;15.05;13.57;;;9.10;99.90;;;;;;7370078;19;20022;-66
2023/04/12 09:44:06;;;;;;;15.20;13.60;;;9.10;99.90;;;;;;7365533;19;20021;-63
2023/04/12 09:46:33;;;;;;;15.25;13.77;;;9.10;99.90;;;;;;7371024;19;20419;-63
2023/04/12 09:49:01;;;;;;;16.00;14.38;;;9.10;99.90;;;;;;7374005;19;20078;-66
2023/04/12 09:51:31;;;;;;;14.80;13.10;;;9.30;99.90;;;;;;7372867;19;20144;-63
2023/04/12 09:54:03;;;;;;;14.55;13.10;;;9.40;99.90;;;;;;7371788;19;20486;-63
2023/04/12 09:56:32;;;;;;;13.25;10.95;;;9.60;99.90;;;;;;7373312;19;20879;-66
2023/04/12 09:59:09;;;;;;;11.90;10.82;;;9.60;99.90;;;;;;7374185;19;20027;-63
2023/04/12 10:01:38;;;;;;;13.82;10.82;;;9.70;99.90;;;;;;7371367;19;20030;-66
2023/04/12 10:04:08;;;;;;;10.98;9.98;;;9.60;99.90;;;;;;7369495;19;20563;-65
2023/04/12 10:06:40;;;;;;;10.48;9.43;;;9.60;99.90;;;;;;7369578;19;20019;-66
2023/04/12 10:09:07;;;;;;;11.60;9.75;;;9.50;99.90;;;;;;7370357;19;20045;-66
2023/04/12 10:11:34;;;;;;;10.65;9.23;;;9.60;99.90;;;;;;7365501;19;20022;-66
2023/04/12 10:14:05;;;;;;;11.18;8.73;;;9.60;99.90;;;;;;7374124;19;20037;-66
2023/04/12 10:16:39;;;;;;;10.37;9.10;;;9.70;99.90;;;;;;7369792;19;20029;-66
2023/04/12 10:19:06;;;;;;;11.60;9.32;;;9.70;99.90;;;;;;7368525;19;20018;-66
2023/04/12 10:21:32;;;;;;;12.07;8.68;;;9.90;99.90;;;;;;7373608;19;20018;-64
2023/04/12 10:24:00;;;;;;;13.40;9.93;;;10.20;99.90;;;;;;7371657;19;20097;-65
2023/04/12 10:26:27;;;;;;;12.20;9.07;;;10.60;99.90;;;;;;7362929;19;20023;-65
2023/04/12 10:29:29;;;;;;;11.98;7.65;;;10.80;99.90;;;;;;7370787;19;20462;-65
2023/04/12 10:32:21;;;;;;;10.85;8.18;;;10.90;99.90;;;;;;7372316;19;20080;-63
2023/04/12 10:34:56;;;;;;;10.73;6.25;;;11.00;99.90;;;;;;7373037;19;20543;-64
2023/04/12 10:38:01;;;;;;;9.70;6.60;;;11.00;99.90;;;;;;7374761;19;20117;-65
2023/04/12 10:40:30;;;;;;;8.57;5.53;;;11.20;99.90;;;;;;7373461;19;20031;-63
2023/04/12 10:43:18;;;;;;;12.15;6.30;;;11.30;99.90;;;;;;7371266;19;20035;-63
2023/04/12 10:45:44;;;;;;;12.15;6.15;;;11.50;99.90;;;;;;7371737;19;20043;-63
2023/04/12 10:48:30;;;;;;;10.35;6.10;;;11.70;99.90;;;;;;7364799;19;20020;-62
2023/04/12 10:51:28;;;;;;;10.02;5.43;;;11.90;99.90;;;;;;7364555;19;20038;-63
2023/04/12 10:54:15;;;;;;;10.00;4.95;;;12.20;99.90;;;;;;7367119;19;20014;-64
2023/04/12 10:56:43;;;;;;;10.88;5.30;;;12.30;99.90;;;;;;7367562;19;20026;-63
2023/04/12 10:59:15;;;;;;;10.88;4.65;;;12.30;99.90;;;;;;7365065;19;20507;-63
2023/04/12 11:02:03;;;;;;;9.77;4.20;;;12.10;99.90;;;;;;7368215;19;20029;-64
2023/04/12 11:04:30;;;;;;;9.57;4.10;;;12.20;99.90;;;;;;7371096;19;20020;-63
2023/04/12 11:07:10;;;;;;;13.00;4.55;;;12.40;99.90;;;;;;7376814;19;20852;-66
2023/04/12 11:09:49;;;;;;;8.68;4.03;;;12.30;99.90;;;;;;7377731;19;20018;-65
2023/04/12 11:12:38;;;;;;;11.55;4.20;;;12.60;99.90;;;;;;7376057;19;20022;-63
2023/04/12 11:15:05;;;;;;;8.55;3.67;;;13.50;99.90;;;;;;7380956;19;20029;-64
2023/04/12 11:17:55;;;;;;;10.35;3.65;;;13.60;99.90;;;;;;7376343;19;20022;-66
2023/04/12 11:20:22;;;;;;;11.20;3.70;;;13.80;99.90;;;;;;7377644;19;20078;-62
2023/04/12 11:22:52;;;;;;;14.45;4.10;;;13.60;99.90;;;;;;7376370;19;20510;-63
2023/04/12 11:25:19;;;;;;;7.80;3.67;;;14.50;99.90;;;;;;7380095;19;20022;-63
2023/04/12 11:27:53;;;;;;;12.70;3.97;;;15.10;99.90;;;;;;7377688;19;20626;-63
2023/04/12 11:30:20;;;;;;;7.75;3.30;;;15.60;99.90;;;;;;7376163;19;20023;-63
2023/04/12 11:32:47;;;;;;;10.05;3.13;;;15.90;99.90;;;;;;7380037;19;20019;-63
2023/04/12 11:35:23;;;;;;;9.93;3.10;;;16.30;99.90;;;;;;7380302;19;20019;-65
2023/04/12 11:37:56;;;;;;;11.10;2.75;;;16.40;99.90;;;;;;7373712;19;20405;-63
2023/04/12 11:40:22;;;;;;;11.60;3.42;;;17.40;99.90;;;;;;7379682;19;20018;-66
2023/04/12 11:42:48;;;;;;;10.85;3.38;;;17.20;99.90;;;;;;7378232;19;20465;-66
2023/04/12 11:45:19;;;;;;;9.63;2.40;;;17.50;99.90;;;;;;7375814;19;20515;-66
2023/04/12 11:47:45;;;;;;;11.18;2.92;;;17.80;99.90;;;;;;7380460;19;20022;-67
2023/04/12 11:50:12;;;;;;;9.35;2.30;;;17.10;99.90;;;;;;7377813;19;20481;-65
2023/04/12 11:52:39;;;;;;;11.82;3.15;;;16.20;99.90;;;;;;7381377;19;20638;-65
2023/04/12 11:55:07;;;;;;;9.25;2.70;;;16.10;99.90;;;;;;7379304;19;20018;-65
2023/04/12 11:57:34;;;;;;;15.23;3.67;;;15.90;99.90;;;;;;7376487;19;20517;-64
2023/04/12 12:00:04;;;;;;;10.43;2.60;;;15.80;99.90;;;;;;7379393;19;20573;-66
2023/04/12 12:02:38;;;;;;;10.07;3.22;;;15.20;99.90;;;;;;7380639;19;20018;-66
2023/04/12 12:05:05;;;;;;;12.82;2.53;;;15.30;99.90;;;;;;7376754;19;20495;-66
2023/04/12 12:07:34;;;;;;;11.48;2.42;;;15.90;99.90;;;;;;7378748;19;20073;-66
2023/04/12 12:10:00;;;;;;;14.57;3.10;;;15.50;99.90;;;;;;7379565;19;20490;-66
2023/04/12 12:12:27;;;;;;;11.70;3.58;;;15.80;99.90;;;;;;7379784;19;20953;-65
2023/04/12 12:14:57;;;;;;;8.30;2.40;;;16.30;99.90;;;;;;7377126;19;20604;-66
2023/04/12 12:17:26;;;;;;;12.87;2.50;;;16.40;99.90;;;;;;7371010;19;20091;-65
2023/04/12 12:19:57;;;;;;;12.50;3.03;;;15.80;99.90;;;;;;7376222;19;20082;-65
2023/04/12 12:22:23;;;;;;;12.97;2.80;;;15.80;99.90;;;;;;7377002;19;20493;-64
2023/04/12 12:24:56;;;;;;;12.63;2.70;;;15.80;99.90;;;;;;7378050;19;22642;-63
2023/04/12 12:27:34;;;;;;;8.85;2.25;;;15.80;99.90;;;;;;7375957;19;20025;-64
2023/04/12 12:30:01;;;;;;;7.95;2.20;;;15.90;99.90;;;;;;7373331;19;20038;-63
2023/04/12 12:32:35;;;;;;;8.27;2.50;;;16.10;99.90;;;;;;7378715;19;20018;-63
2023/04/12 12:35:06;;;;;;;11.32;2.67;;;16.20;99.90;;;;;;7377646;19;20371;-63
2023/04/12 12:37:33;;;;;;;13.10;2.58;;;16.40;99.90;;;;;;7378967;19;20030;-63
2023/04/12 12:40:12;;;;;;;15.93;3.47;;;16.70;99.90;;;;;;7373444;19;20026;-63
2023/04/12 12:42:49;;;;;;;13.32;2.60;;;17.10;99.90;;;;;;7381800;19;20022;-63
2023/04/12 12:45:20;;;;;;;9.88;2.30;;;16.90;99.90;;;;;;7376524;19;20664;-63
2023/04/12 12:47:57;;;;;;;12.40;3.03;;;16.40;99.90;;;;;;7377648;19;20109;-63
2023/04/12 12:50:25;;;;;;;12.30;3.30;;;15.90;99.90;;;;;;7372438;19;20405;-64
2023/04/12 12:52:53;;;;;;;12.75;2.55;;;15.30;99.90;;;;;;7376095;19;20019;-63
2023/04/12 12:55:20;;;;;;;9.65;2.70;;;15.10;99.90;;;;;;7376131;19;20046;-66
2023/04/12 12:57:47;;;;;;;8.65;2.22;;;14.90;99.90;;;;;;7375113;19;20098;-65
2023/04/12 13:00:15;;;;;;;13.45;2.60;;;14.60;99.90;;;;;;7376189;19;20026;-63
2023/04/12 13:02:42;;;;;;;9.57;2.50;;;14.10;99.90;;;;;;7376862;19;20029;-64
2023/04/12 13:05:09;;;;;;;16.38;3.38;;;13.60;99.90;;;;;;7375989;19;20025;-64
2023/04/12 13:07:37;;;;;;;15.85;3.17;;;13.10;99.90;;;;;;7376768;19;20569;-65
2023/04/12 13:10:04;;;;;;;15.90;3.10;;;12.70;99.90;;;;;;7377760;19;20015;-63
2023/04/12 13:12:30;;;;;;;14.50;3.70;;;12.30;99.90;;;;;;7376702;19;20022;-63